Accueil
METAR-TAF:

METAR-TAF

Aéroports :

Dax, France

Seyresse

latitude: 43-41N, longitude: 001-04W, altitude: 32 m

Observation

Le bulletin a été fait il y a 25 minutes, à 04:00 UTC
Vent 1 kt de est
Température 14°C
Humidité 94%
Pression 1020 hPa
Visibilité 10 km ou plus

METAR: LFBY 220400Z AUTO 10001KT 9999 // NSC 14/13 Q1020

Heure: 06:25 (04:25 UTC)

Prévision

Le bulletin a été fait il y a 20 heures et 25 minutes, à 08:00 UTC
Prévision valable du 21 à 09 UTC au 21 à 18 UTC
Vent 5 kt de sud-est
Visibilité 10 km ou plus
pas de nuages en-dessous de 1500 mètres et pas de cumulonimbus.
Evoluant progressivement
du 21 à 09 UTC au 21 à 11 UTC
Vent 10 kt de ouest
Evoluant progressivement
du 21 à 17 UTC au 21 à 18 UTC
Nuages fragmentés à une hauteur de 1300 ft

TAF: LFBY 210800Z 2109/2118 14005KT CAVOK BECMG 2109/2111 28010KT BECMG 2117/2118 BKN013

Observations et prévisions météorologiques de plus de 4000 aéroports (messages METAR et TAF).

Les stations disponibles sont représentées par des disques jaunes et rouges sur la carte.

Passer la souris dessus pour voir le nom de la station.

Cliquer dessus pour voir les observations et prévisions météorologiques.

Pour changer de carte: cliquez sur les boutons verts avec une croix noire pour zoomer, sur le bouton vert avec un tiret pour effectuer un zoom arrière, ou sur les flèches vertes pour les cartes adjacentes.


METAR-TAF: